Time;durP1;ratioP1;P1;durP2;ratioP2;P2;SDS_P1;SDS_P2;PMS_P1;PMS_P2;Temp;Humidity;BMP_temperature;BMP_pressure;BME280_temperature;BME280_humidity;BME280_pressure;Samples;Min_cycle;Max_cycle;Signal;HPM_P1;HPM_P2
2021/08/20 00:02:06;;;;;;;3.05;2.75;;;;;;;;;;10275399;28;20504;-55
2021/08/20 00:07:06;;;;;;;4.80;2.30;;;;;;;;;;10275417;28;20088;-55
2021/08/20 00:12:05;;;;;;;3.17;2.75;;;;;;;;;;10275158;28;20045;-55
2021/08/20 00:17:04;;;;;;;3.45;2.97;;;;;;;;;;10275035;28;20080;-55
2021/08/20 00:22:04;;;;;;;3.45;2.17;;;;;;;;;;10274926;28;20425;-56
2021/08/20 00:27:05;;;;;;;4.30;2.47;;;;;;;;;;10274243;28;20539;-55
2021/08/20 00:32:03;;;;;;;5.40;2.70;;;;;;;;;;10276135;28;20084;-56
2021/08/20 00:37:02;;;;;;;2.55;2.15;;;;;;;;;;10282282;28;20490;-56
2021/08/20 00:42:00;;;;;;;4.82;3.00;;;;;;;;;;10281528;28;20049;-55
2021/08/20 00:47:00;;;;;;;4.68;3.45;;;;;;;;;;10280003;28;20053;-56
2021/08/20 00:52:00;;;;;;;3.75;3.40;;;;;;;;;;10280321;28;20064;-56
2021/08/20 00:56:59;;;;;;;4.57;3.47;;;;;;;;;;10281954;28;20060;-56
2021/08/20 01:01:57;;;;;;;7.78;3.45;;;;;;;;;;10280891;28;20040;-56
2021/08/20 01:06:58;;;;;;;5.72;3.90;;;;;;;;;;10280956;28;20080;-55
2021/08/20 01:11:57;;;;;;;6.05;3.65;;;;;;;;;;10279591;28;20048;-56
2021/08/20 01:16:55;;;;;;;4.63;3.20;;;;;;;;;;10278937;28;20041;-56
2021/08/20 01:21:54;;;;;;;6.35;3.20;;;;;;;;;;10280558;28;20508;-57
2021/08/20 01:26:54;;;;;;;4.88;2.88;;;;;;;;;;10278679;28;20060;-56
2021/08/20 01:31:53;;;;;;;4.57;3.47;;;;;;;;;;10280204;28;20072;-57
2021/08/20 01:36:51;;;;;;;4.10;3.00;;;;;;;;;;10279599;28;20044;-56
2021/08/20 01:41:49;;;;;;;3.20;2.90;;;;;;;;;;10278754;28;20052;-57
2021/08/20 01:46:50;;;;;;;5.30;2.92;;;;;;;;;;10277188;28;20048;-56
2021/08/20 01:51:50;;;;;;;6.15;3.47;;;;;;;;;;10278219;28;20053;-56
2021/08/20 01:56:49;;;;;;;5.13;3.60;;;;;;;;;;10277282;28;20045;-56
2021/08/20 02:01:47;;;;;;;6.03;3.53;;;;;;;;;;10278178;28;20041;-56
2021/08/20 02:06:51;;;;;;;7.57;3.47;;;;;;;;;;10277054;28;20060;-53
2021/08/20 02:11:50;;;;;;;6.47;4.10;;;;;;;;;;10277568;28;20045;-55
2021/08/20 02:16:50;;;;;;;5.22;3.42;;;;;;;;;;10277349;28;20418;-54
2021/08/20 02:21:49;;;;;;;5.35;3.78;;;;;;;;;;10276458;28;20049;-55
2021/08/20 02:27:04;;;;;;;3.65;3.08;;;;;;;;;;10276049;28;20061;-55
2021/08/20 02:32:03;;;;;;;4.40;2.90;;;;;;;;;;10276364;28;20056;-56
2021/08/20 02:37:02;;;;;;;5.07;2.97;;;;;;;;;;10276364;28;20056;-53
2021/08/20 02:42:05;;;;;;;5.72;2.95;;;;;;;;;;10275836;28;20060;-54
2021/08/20 02:47:03;;;;;;;7.75;2.90;;;;;;;;;;10275570;28;20049;-57
2021/08/20 02:52:02;;;;;;;4.25;3.85;;;;;;;;;;10276449;28;20056;-58
2021/08/20 02:57:06;;;;;;;6.07;2.85;;;;;;;;;;10275689;28;20053;-57
2021/08/20 03:02:12;;;;;;;3.13;2.83;;;;;;;;;;10275500;28;20053;-57
2021/08/20 03:07:11;;;;;;;3.55;3.22;;;;;;;;;;10275314;28;20057;-57
2021/08/20 03:12:12;;;;;;;3.85;2.80;;;;;;;;;;10275149;28;20490;-57
2021/08/20 03:17:19;;;;;;;7.35;3.30;;;;;;;;;;10274996;28;20072;-57
2021/08/20 03:22:18;;;;;;;3.55;3.20;;;;;;;;;;10275358;28;20056;-58
2021/08/20 03:27:17;;;;;;;3.95;3.20;;;;;;;;;;10276245;28;20045;-56
2021/08/20 03:32:31;;;;;;;6.22;2.92;;;;;;;;;;10274892;28;20195;-55
2021/08/20 03:37:30;;;;;;;3.75;3.45;;;;;;;;;;10274906;28;20056;-55
2021/08/20 03:42:31;;;;;;;3.22;2.90;;;;;;;;;;10274869;28;20045;-56
2021/08/20 03:47:49;;;;;;;5.93;3.55;;;;;;;;;;10275238;28;20486;-57
2021/08/20 03:52:47;;;;;;;3.55;3.15;;;;;;;;;;10275626;28;20036;-56
2021/08/20 03:57:49;;;;;;;4.80;3.60;;;;;;;;;;10274363;28;20422;-56
2021/08/20 04:02:48;;;;;;;11.77;9.20;;;;;;;;;;10275640;28;20045;-56
2021/08/20 04:07:47;;;;;;;8.50;6.07;;;;;;;;;;10276312;28;20049;-56
2021/08/20 04:13:08;;;;;;;8.30;6.30;;;;;;;;;;10283125;28;20049;-56
2021/08/20 04:18:12;;;;;;;6.88;4.82;;;;;;;;;;10281580;28;20056;-56
2021/08/20 04:23:11;;;;;;;6.68;4.15;;;;;;;;;;10281387;28;20056;-56
2021/08/20 04:28:15;;;;;;;8.07;5.40;;;;;;;;;;10281388;28;20053;-57
2021/08/20 04:33:33;;;;;;;7.85;6.13;;;;;;;;;;10282626;28;20069;-56
2021/08/20 04:38:50;;;;;;;8.68;6.65;;;;;;;;;;10286993;28;20056;-56
2021/08/20 04:44:14;;;;;;;4.35;3.63;;;;;;;;;;10280892;28;20053;-56
2021/08/20 04:49:36;;;;;;;10.70;5.70;;;;;;;;;;10282336;28;20085;-57
2021/08/20 04:54:55;;;;;;;10.98;5.45;;;;;;;;;;10280378;28;20071;-56
2021/08/20 04:59:56;;;;;;;6.30;3.88;;;;;;;;;;10280288;28;20053;-57
2021/08/20 05:04:54;;;;;;;7.75;4.20;;;;;;;;;;10280029;28;20061;-57
2021/08/20 05:09:53;;;;;;;5.55;3.95;;;;;;;;;;10281696;28;20072;-58
2021/08/20 05:14:51;;;;;;;7.90;4.30;;;;;;;;;;10281499;28;20520;-56
2021/08/20 05:19:51;;;;;;;3.85;3.50;;;;;;;;;;10281307;28;20052;-53
2021/08/20 05:24:49;;;;;;;4.30;3.40;;;;;;;;;;10281004;28;20041;-57
2021/08/20 05:29:48;;;;;;;26.92;13.35;;;;;;;;;;10280935;28;20069;-53
2021/08/20 05:34:46;;;;;;;16.90;11.27;;;;;;;;;;10280819;28;20607;-58
2021/08/20 05:39:46;;;;;;;16.83;7.20;;;;;;;;;;10280672;28;20056;-57
2021/08/20 05:44:44;;;;;;;11.75;5.30;;;;;;;;;;10280330;28;20073;-56
2021/08/20 05:49:42;;;;;;;8.10;4.60;;;;;;;;;;10279214;28;20089;-56
2021/08/20 05:54:41;;;;;;;9.07;4.00;;;;;;;;;;10279983;28;20040;-57
2021/08/20 05:59:40;;;;;;;11.05;5.82;;;;;;;;;;10279809;28;20049;-58
2021/08/20 06:04:39;;;;;;;7.18;4.80;;;;;;;;;;10277341;28;20528;-57
2021/08/20 06:09:37;;;;;;;9.45;4.65;;;;;;;;;;10277444;28;20418;-58
2021/08/20 06:14:36;;;;;;;9.43;6.07;;;;;;;;;;10279306;28;20076;-57
2021/08/20 06:19:35;;;;;;;17.63;6.28;;;;;;;;;;10278856;28;20048;-51
2021/08/20 06:24:34;;;;;;;9.30;4.78;;;;;;;;;;10278659;28;20052;-58
2021/08/20 06:29:32;;;;;;;8.05;4.90;;;;;;;;;;10278059;28;20111;-58
2021/08/20 06:34:32;;;;;;;5.28;4.13;;;;;;;;;;10276941;28;20049;-57
2021/08/20 06:39:31;;;;;;;3.88;3.50;;;;;;;;;;10278339;28;20056;-57
2021/08/20 06:44:30;;;;;;;9.77;8.85;;;;;;;;;;10278041;28;20055;-55
2021/08/20 06:49:28;;;;;;;8.82;5.78;;;;;;;;;;10276975;28;20088;-52
2021/08/20 06:54:26;;;;;;;6.15;3.85;;;;;;;;;;10277793;28;20053;-55
2021/08/20 06:59:26;;;;;;;5.00;2.72;;;;;;;;;;10277459;28;20045;-54
2021/08/20 07:04:24;;;;;;;4.40;2.90;;;;;;;;;;10277292;28;20544;-51
2021/08/20 07:09:24;;;;;;;4.65;3.50;;;;;;;;;;10277074;28;20080;-54
2021/08/20 07:14:22;;;;;;;3.70;3.25;;;;;;;;;;10277322;28;20063;-55
2021/08/20 07:19:25;;;;;;;5.88;5.28;;;;;;;;;;10276800;28;20072;-57
2021/08/20 07:24:23;;;;;;;4.13;3.65;;;;;;;;;;10276626;28;20068;-57
2021/08/20 07:29:22;;;;;;;8.20;3.92;;;;;;;;;;10276670;28;20076;-57
2021/08/20 07:34:20;;;;;;;6.30;3.80;;;;;;;;;;10276576;28;20083;-57
2021/08/20 07:39:20;;;;;;;17.02;9.95;;;;;;;;;;10276051;28;20053;-56
2021/08/20 07:44:18;;;;;;;10.68;5.03;;;;;;;;;;10281755;28;20414;-54
2021/08/20 07:49:16;;;;;;;3.55;3.10;;;;;;;;;;10283913;28;20060;-57
2021/08/20 07:54:15;;;;;;;7.15;5.10;;;;;;;;;;10284531;28;20045;-56
2021/08/20 07:59:14;;;;;;;12.13;7.78;;;;;;;;;;10284347;28;20057;-57
2021/08/20 08:04:13;;;;;;;8.15;4.55;;;;;;;;;;10283165;28;20084;-58
2021/08/20 08:09:11;;;;;;;2.95;2.53;;;;;;;;;;10283528;28;20215;-57
2021/08/20 08:14:10;;;;;;;5.55;5.00;;;;;;;;;;10283771;28;20064;-57
2021/08/20 08:19:09;;;;;;;9.23;4.00;;;;;;;;;;10283550;28;20044;-57
2021/08/20 08:24:08;;;;;;;5.53;4.00;;;;;;;;;;10283227;28;20079;-58
2021/08/20 08:29:06;;;;;;;4.00;2.58;;;;;;;;;;10283145;28;20049;-58
2021/08/20 08:34:04;;;;;;;2.72;2.47;;;;;;;;;;10282960;28;20076;-57
2021/08/20 08:39:04;;;;;;;7.00;5.30;;;;;;;;;;10281886;28;20049;-58
2021/08/20 08:44:03;;;;;;;8.00;4.95;;;;;;;;;;10282716;28;20045;-57
2021/08/20 08:49:01;;;;;;;5.78;3.55;;;;;;;;;;10281684;28;20057;-57
2021/08/20 08:53:59;;;;;;;5.95;2.80;;;;;;;;;;10281669;28;20080;-57
2021/08/20 08:58:59;;;;;;;4.32;2.90;;;;;;;;;;10281903;28;20075;-56
2021/08/20 09:04:07;;;;;;;3.58;2.90;;;;;;;;;;10281848;28;20053;-56
2021/08/20 09:09:05;;;;;;;2.95;2.63;;;;;;;;;;10281691;28;20064;-58
2021/08/20 09:14:05;;;;;;;17.85;16.02;;;;;;;;;;10281609;28;20073;-57
2021/08/20 09:19:12;;;;;;;3.25;2.95;;;;;;;;;;10281418;28;20049;-57
2021/08/20 09:24:28;;;;;;;3.95;2.63;;;;;;;;;;10281070;28;20060;-56
2021/08/20 09:29:28;;;;;;;4.43;2.85;;;;;;;;;;10279874;28;20036;-57
2021/08/20 09:34:27;;;;;;;6.20;2.88;;;;;;;;;;10280681;28;20068;-57
2021/08/20 09:39:26;;;;;;;5.15;2.90;;;;;;;;;;10280507;28;20045;-57
2021/08/20 09:44:28;;;;;;;3.65;2.72;;;;;;;;;;10279444;28;20052;-57
2021/08/20 09:49:28;;;;;;;2.88;2.63;;;;;;;;;;10279558;28;20060;-57
2021/08/20 09:54:27;;;;;;;2.78;2.42;;;;;;;;;;10280110;28;20076;-57
2021/08/20 09:59:30;;;;;;;4.88;3.22;;;;;;;;;;10279882;28;20084;-58
2021/08/20 10:04:30;;;;;;;3.17;2.88;;;;;;;;;;10278841;28;20533;-57
2021/08/20 10:09:30;;;;;;;9.13;3.00;;;;;;;;;;10279322;28;20076;-58
2021/08/20 10:14:29;;;;;;;4.13;2.88;;;;;;;;;;10279512;28;20084;-57
2021/08/20 10:19:28;;;;;;;4.50;3.45;;;;;;;;;;10279350;28;20462;-56
2021/08/20 10:24:28;;;;;;;6.10;2.92;;;;;;;;;;10278838;28;20049;-56
2021/08/20 10:29:28;;;;;;;3.38;3.08;;;;;;;;;;10278802;28;20037;-57
2021/08/20 10:34:32;;;;;;;6.63;2.65;;;;;;;;;;10278933;28;20518;-58
2021/08/20 10:39:32;;;;;;;9.45;4.18;;;;;;;;;;10278456;28;20099;-56
2021/08/20 10:44:34;;;;;;;4.05;3.38;;;;;;;;;;10278190;28;20060;-56
2021/08/20 10:49:42;;;;;;;5.13;3.22;;;;;;;;;;10277325;28;20061;-58
2021/08/20 10:54:59;;;;;;;8.25;2.78;;;;;;;;;;10276639;28;20072;-58
2021/08/20 10:59:58;;;;;;;7.75;3.95;;;;;;;;;;10277697;28;20080;-58
2021/08/20 11:04:58;;;;;;;7.88;3.00;;;;;;;;;;10277486;28;20465;-56
2021/08/20 11:09:56;;;;;;;4.55;2.72;;;;;;;;;;10276280;28;20068;-56
2021/08/20 11:14:54;;;;;;;6.82;2.97;;;;;;;;;;10277044;28;20513;-57
2021/08/20 11:19:55;;;;;;;4.03;3.13;;;;;;;;;;10276839;28;20041;-56
2021/08/20 11:25:12;;;;;;;8.30;3.00;;;;;;;;;;10275714;28;20514;-57
2021/08/20 11:30:17;;;;;;;3.10;2.40;;;;;;;;;;10276583;28;20045;-56
2021/08/20 11:35:28;;;;;;;2.72;2.53;;;;;;;;;;10275512;28;20076;-56
2021/08/20 11:40:26;;;;;;;8.85;3.58;;;;;;;;;;10275399;28;20045;-57
2021/08/20 11:45:24;;;;;;;4.40;3.10;;;;;;;;;;10275587;28;20049;-58
2021/08/20 11:50:23;;;;;;;3.03;2.70;;;;;;;;;;10275800;28;20048;-58
2021/08/20 11:55:22;;;;;;;4.65;3.13;;;;;;;;;;10275615;28;20118;-58
2021/08/20 12:00:21;;;;;;;5.60;3.47;;;;;;;;;;10275169;28;20049;-58
2021/08/20 12:05:20;;;;;;;3.33;3.03;;;;;;;;;;10274252;28;20056;-58
2021/08/20 12:10:18;;;;;;;3.90;3.25;;;;;;;;;;10275464;28;20084;-58
2021/08/20 12:15:18;;;;;;;3.67;2.70;;;;;;;;;;10275563;28;20460;-58
2021/08/20 12:20:18;;;;;;;6.32;3.53;;;;;;;;;;10275002;28;20087;-58
2021/08/20 12:25:17;;;;;;;5.45;2.70;;;;;;;;;;10274565;28;20045;-57
2021/08/20 12:30:16;;;;;;;6.50;3.00;;;;;;;;;;10279747;28;20061;-58
2021/08/20 12:35:18;;;;;;;6.75;3.30;;;;;;;;;;10282423;28;20076;-57
2021/08/20 12:40:35;;;;;;;5.00;2.60;;;;;;;;;;10282233;28;20052;-57
2021/08/20 12:45:34;;;;;;;6.03;2.78;;;;;;;;;;10281606;28;20041;-57
2021/08/20 12:50:35;;;;;;;3.88;3.20;;;;;;;;;;10281916;28;20349;-57
2021/08/20 12:55:33;;;;;;;3.85;3.00;;;;;;;;;;10281350;28;20087;-57
2021/08/20 13:00:33;;;;;;;6.05;3.30;;;;;;;;;;10281431;28;20049;-59
2021/08/20 13:05:31;;;;;;;4.53;2.65;;;;;;;;;;10280870;28;20067;-58
2021/08/20 13:10:31;;;;;;;5.47;2.90;;;;;;;;;;10281358;28;20064;-56
2021/08/20 13:15:29;;;;;;;5.85;3.78;;;;;;;;;;10280721;28;20072;-57
2021/08/20 13:20:28;;;;;;;4.43;2.67;;;;;;;;;;10280408;28;20045;-58
2021/08/20 13:25:26;;;;;;;3.42;3.10;;;;;;;;;;10280265;28;20045;-58
2021/08/20 13:30:26;;;;;;;7.07;3.60;;;;;;;;;;10279996;28;20076;-58
2021/08/20 13:35:24;;;;;;;3.03;2.72;;;;;;;;;;10279591;28;20491;-58
2021/08/20 13:40:24;;;;;;;2.65;2.45;;;;;;;;;;10278371;28;20045;-57
2021/08/20 13:45:22;;;;;;;3.85;2.80;;;;;;;;;;10279254;28;20076;-58
2021/08/20 13:50:26;;;;;;;3.65;3.30;;;;;;;;;;10279282;28;20048;-57
2021/08/20 13:55:24;;;;;;;4.35;2.92;;;;;;;;;;10278862;28;20069;-57
2021/08/20 14:00:22;;;;;;;6.40;3.40;;;;;;;;;;10278853;28;20520;-57
2021/08/20 14:05:21;;;;;;;5.22;3.28;;;;;;;;;;10278671;28;20502;-57
2021/08/20 14:10:20;;;;;;;4.25;3.42;;;;;;;;;;10278529;28;20041;-58
2021/08/20 14:15:19;;;;;;;8.60;3.00;;;;;;;;;;10278153;28;20079;-57
2021/08/20 14:20:18;;;;;;;6.60;5.22;;;;;;;;;;10277936;28;20056;-57
2021/08/20 14:25:16;;;;;;;4.97;4.47;;;;;;;;;;10277855;28;20041;-57
2021/08/20 14:30:17;;;;;;;4.25;3.08;;;;;;;;;;10277664;28;20037;-58
2021/08/20 14:35:15;;;;;;;3.97;3.45;;;;;;;;;;10277403;28;20077;-57
2021/08/20 14:40:14;;;;;;;4.65;3.22;;;;;;;;;;10277180;28;20071;-57
2021/08/20 14:45:12;;;;;;;4.63;3.78;;;;;;;;;;10277166;28;20435;-58
2021/08/20 14:50:12;;;;;;;5.65;3.38;;;;;;;;;;10276493;28;20079;-58
2021/08/20 14:55:11;;;;;;;5.47;3.08;;;;;;;;;;10276781;28;20075;-58
2021/08/20 15:00:10;;;;;;;5.03;3.40;;;;;;;;;;10276516;28;20041;-58
2021/08/20 15:05:08;;;;;;;4.70;3.88;;;;;;;;;;10276454;28;20450;-58
2021/08/20 15:10:09;;;;;;;6.63;3.88;;;;;;;;;;10276770;28;20465;-57
2021/08/20 15:15:08;;;;;;;5.57;4.05;;;;;;;;;;10276386;28;20083;-58
2021/08/20 15:20:06;;;;;;;8.52;5.97;;;;;;;;;;10275839;28;20044;-57
2021/08/20 15:25:05;;;;;;;4.95;4.10;;;;;;;;;;10276756;28;20410;-59
2021/08/20 15:30:06;;;;;;;8.07;4.35;;;;;;;;;;10276664;28;20069;-58
2021/08/20 15:35:04;;;;;;;7.45;5.28;;;;;;;;;;10276491;28;20084;-58
2021/08/20 15:40:20;;;;;;;10.23;8.02;;;;;;;;;;10275947;28;20083;-58
2021/08/20 15:45:20;;;;;;;7.88;3.42;;;;;;;;;;10276414;28;20049;-58
2021/08/20 15:50:19;;;;;;;4.80;4.18;;;;;;;;;;10275391;28;20561;-58
2021/08/20 15:55:18;;;;;;;7.43;5.20;;;;;;;;;;10275061;28;20084;-57
2021/08/20 16:00:17;;;;;;;6.93;4.60;;;;;;;;;;10275103;28;20525;-58
2021/08/20 16:05:16;;;;;;;8.77;4.03;;;;;;;;;;10280156;28;20041;-57
2021/08/20 16:10:15;;;;;;;7.78;4.18;;;;;;;;;;10282913;28;20467;-58
2021/08/20 16:15:13;;;;;;;5.93;4.15;;;;;;;;;;10282623;28;20488;-58
2021/08/20 16:20:12;;;;;;;7.18;4.15;;;;;;;;;;10282881;28;20052;-58
2021/08/20 16:25:13;;;;;;;6.75;3.63;;;;;;;;;;10282611;28;20049;-57
2021/08/20 16:30:12;;;;;;;10.15;4.68;;;;;;;;;;10283038;28;20057;-58
2021/08/20 16:35:11;;;;;;;7.25;3.85;;;;;;;;;;10283000;28;20056;-57
2021/08/20 16:40:10;;;;;;;4.78;4.00;;;;;;;;;;10282187;28;20072;-57
2021/08/20 16:45:11;;;;;;;9.18;5.60;;;;;;;;;;10281806;28;20052;-58
2021/08/20 16:50:10;;;;;;;12.18;4.03;;;;;;;;;;10282145;28;20067;-57
2021/08/20 16:55:09;;;;;;;8.25;4.45;;;;;;;;;;10281940;28;20107;-58
2021/08/20 17:00:08;;;;;;;8.05;4.88;;;;;;;;;;10281099;28;20064;-57
2021/08/20 17:05:09;;;;;;;7.38;3.63;;;;;;;;;;10280904;28;20045;-55
2021/08/20 17:10:08;;;;;;;8.05;4.43;;;;;;;;;;10281054;28;20045;-56
2021/08/20 17:15:06;;;;;;;9.77;3.92;;;;;;;;;;10279983;28;20092;-56
2021/08/20 17:20:06;;;;;;;12.60;4.90;;;;;;;;;;10281468;28;20045;-56
2021/08/20 17:25:08;;;;;;;5.40;4.35;;;;;;;;;;10280047;28;20506;-55
2021/08/20 17:30:07;;;;;;;5.65;4.32;;;;;;;;;;10281083;28;20470;-57
2021/08/20 17:35:06;;;;;;;4.07;3.67;;;;;;;;;;10280801;28;20073;-57
2021/08/20 17:40:08;;;;;;;4.38;3.63;;;;;;;;;;10279248;28;20116;-57
2021/08/20 17:45:07;;;;;;;6.82;3.78;;;;;;;;;;10279881;28;20415;-57
2021/08/20 17:50:06;;;;;;;4.53;4.13;;;;;;;;;;10279626;28;20096;-56
2021/08/20 17:55:04;;;;;;;6.40;3.50;;;;;;;;;;10279189;28;20482;-56
2021/08/20 18:00:05;;;;;;;5.22;3.38;;;;;;;;;;10279906;28;20092;-57
2021/08/20 18:05:08;;;;;;;8.60;3.42;;;;;;;;;;10278782;28;20036;-57
2021/08/20 18:10:07;;;;;;;9.20;4.07;;;;;;;;;;10279356;28;20478;-57
2021/08/20 18:15:07;;;;;;;5.35;3.83;;;;;;;;;;10279372;28;20072;-57
2021/08/20 18:20:06;;;;;;;8.38;4.00;;;;;;;;;;10278599;28;20052;-56
2021/08/20 18:25:05;;;;;;;4.45;3.92;;;;;;;;;;10278494;28;20183;-57
2021/08/20 18:30:04;;;;;;;7.20;3.90;;;;;;;;;;10278648;28;20071;-56
2021/08/20 18:35:04;;;;;;;7.65;4.05;;;;;;;;;;10278457;28;20085;-56
2021/08/20 18:40:03;;;;;;;6.05;3.05;;;;;;;;;;10278247;28;20478;-57
2021/08/20 18:45:01;;;;;;;9.63;3.42;;;;;;;;;;10278060;28;20053;-57
2021/08/20 18:50:00;;;;;;;5.10;4.60;;;;;;;;;;10277205;28;20049;-57
2021/08/20 18:54:59;;;;;;;4.53;3.83;;;;;;;;;;10276640;28;20075;-55
2021/08/20 18:59:58;;;;;;;12.73;4.07;;;;;;;;;;10277570;28;20044;-57
2021/08/20 19:04:56;;;;;;;4.32;3.90;;;;;;;;;;10276219;28;20080;-56
2021/08/20 19:09:54;;;;;;;4.38;3.75;;;;;;;;;;10277130;28;20068;-57
2021/08/20 19:14:54;;;;;;;5.07;3.70;;;;;;;;;;10276989;28;20099;-57
2021/08/20 19:19:52;;;;;;;9.57;3.50;;;;;;;;;;10276006;28;20073;-55
2021/08/20 19:24:51;;;;;;;4.55;3.58;;;;;;;;;;10276861;28;20045;-56
2021/08/20 19:29:49;;;;;;;6.63;3.70;;;;;;;;;;10276687;28;20089;-57
2021/08/20 19:34:49;;;;;;;4.93;4.00;;;;;;;;;;10276553;28;20076;-58
2021/08/20 19:39:48;;;;;;;3.70;3.40;;;;;;;;;;10276381;28;20048;-56
2021/08/20 19:44:46;;;;;;;6.80;3.85;;;;;;;;;;10276403;28;20037;-56
2021/08/20 19:49:44;;;;;;;3.95;3.25;;;;;;;;;;10275759;28;20525;-54
2021/08/20 19:54:44;;;;;;;4.05;3.30;;;;;;;;;;10275744;28;20077;-57
2021/08/20 19:59:42;;;;;;;3.58;3.15;;;;;;;;;;10275040;28;20072;-56
2021/08/20 20:04:40;;;;;;;5.07;3.83;;;;;;;;;;10276266;28;20045;-57
2021/08/20 20:09:39;;;;;;;4.68;3.80;;;;;;;;;;10275858;28;20056;-55
2021/08/20 20:14:38;;;;;;;3.70;3.00;;;;;;;;;;10274583;28;20481;-56
2021/08/20 20:19:37;;;;;;;4.10;3.70;;;;;;;;;;10275706;28;20052;-56
2021/08/20 20:24:35;;;;;;;3.92;3.55;;;;;;;;;;10275782;28;20072;-57
2021/08/20 20:29:33;;;;;;;5.75;4.57;;;;;;;;;;10275520;28;20073;-54
2021/08/20 20:34:33;;;;;;;4.13;3.28;;;;;;;;;;10275327;28;20088;-57
2021/08/20 20:39:32;;;;;;;6.32;3.45;;;;;;;;;;10275357;28;20044;-57
2021/08/20 20:44:30;;;;;;;7.00;3.38;;;;;;;;;;10274328;28;20037;-56
2021/08/20 20:49:28;;;;;;;7.10;3.47;;;;;;;;;;10276619;28;20053;-55
2021/08/20 20:54:28;;;;;;;13.10;4.57;;;;;;;;;;10282375;28;20076;-56
2021/08/20 20:59:26;;;;;;;6.18;3.78;;;;;;;;;;10282202;28;20072;-55
2021/08/20 21:04:24;;;;;;;4.80;3.75;;;;;;;;;;10281975;28;20076;-55
2021/08/20 21:09:23;;;;;;;4.30;3.75;;;;;;;;;;10281952;28;20052;-56
2021/08/20 21:14:22;;;;;;;7.95;4.03;;;;;;;;;;10281647;28;20080;-57
2021/08/20 21:19:21;;;;;;;5.63;3.90;;;;;;;;;;10280478;28;20265;-55
2021/08/20 21:24:19;;;;;;;5.85;3.53;;;;;;;;;;10281271;28;20498;-55
2021/08/20 21:29:17;;;;;;;7.43;4.05;;;;;;;;;;10280945;28;20080;-57
2021/08/20 21:34:17;;;;;;;5.20;3.50;;;;;;;;;;10280695;28;20069;-57
2021/08/20 21:39:15;;;;;;;7.10;3.55;;;;;;;;;;10280756;28;20049;-56
2021/08/20 21:44:13;;;;;;;4.30;3.70;;;;;;;;;;10280127;28;20048;-55
2021/08/20 21:49:12;;;;;;;3.92;3.40;;;;;;;;;;10280907;28;20064;-55
2021/08/20 21:54:11;;;;;;;3.78;3.35;;;;;;;;;;10280296;28;20049;-55
2021/08/20 21:59:10;;;;;;;3.78;3.05;;;;;;;;;;10280108;28;20076;-55
2021/08/20 22:04:08;;;;;;;4.47;3.60;;;;;;;;;;10277629;28;20469;-55
2021/08/20 22:09:06;;;;;;;4.43;3.47;;;;;;;;;;10279134;28;20067;-55
2021/08/20 22:14:06;;;;;;;4.82;3.40;;;;;;;;;;10278386;28;20041;-55
2021/08/20 22:19:05;;;;;;;4.38;3.97;;;;;;;;;;10278738;28;20287;-55
2021/08/20 22:24:04;;;;;;;3.72;3.25;;;;;;;;;;10279056;28;20049;-56
2021/08/20 22:29:02;;;;;;;4.45;3.50;;;;;;;;;;10277703;28;20068;-55
2021/08/20 22:34:02;;;;;;;4.50;3.25;;;;;;;;;;10278473;28;20418;-56
2021/08/20 22:39:00;;;;;;;9.77;3.88;;;;;;;;;;10278331;28;20075;-56
2021/08/20 22:43:59;;;;;;;4.10;3.30;;;;;;;;;;10277191;28;20044;-55
2021/08/20 22:48:57;;;;;;;4.38;3.60;;;;;;;;;;10277192;28;20057;-55
2021/08/20 22:53:57;;;;;;;5.88;3.85;;;;;;;;;;10277890;28;20426;-55
2021/08/20 22:58:55;;;;;;;3.53;3.22;;;;;;;;;;10276968;28;20532;-56
2021/08/20 23:03:53;;;;;;;7.13;4.00;;;;;;;;;;10277132;28;20049;-55
2021/08/20 23:08:52;;;;;;;8.02;3.45;;;;;;;;;;10277351;28;20285;-55
2021/08/20 23:13:51;;;;;;;6.78;3.92;;;;;;;;;;10276668;28;20045;-55
2021/08/20 23:18:52;;;;;;;7.70;3.20;;;;;;;;;;10276059;28;20079;-56
2021/08/20 23:23:51;;;;;;;4.22;3.33;;;;;;;;;;10276941;28;20060;-56
2021/08/20 23:28:50;;;;;;;3.38;3.05;;;;;;;;;;10276641;28;20083;-57
2021/08/20 23:33:49;;;;;;;3.78;3.40;;;;;;;;;;10276478;28;20045;-55
2021/08/20 23:38:48;;;;;;;10.45;3.65;;;;;;;;;;10276396;28;20072;-54
2021/08/20 23:43:46;;;;;;;4.95;3.58;;;;;;;;;;10276309;28;20049;-56
2021/08/20 23:48:45;;;;;;;3.95;3.55;;;;;;;;;;10275796;28;20426;-56
2021/08/20 23:53:44;;;;;;;8.50;3.45;;;;;;;;;;10276178;28;20044;-56
2021/08/20 23:58:43;;;;;;;8.25;4.57;;;;;;;;;;10275860;28;20080;-52
